EPGD/GDN METAR and TAF weather

Enter ICAO airport designator
Station Type Date Time Source
EPGD METAR 2020/04/02 21:00 UTC NOAA

EPGD 022100Z 23018KT CAVOK 06/M03 Q0999


Station Type Date Time Source
EPGD Decoded METAR 2020/04/02 21:00 UTC NOAA

Gdansk-Rebiechowo, Poland (EPGD) 54-23N 018-28E 138M
Apr 02, 2020 - 05:00 PM EDT / 2020.04.02 2100 UTC
Wind: from the SW (230 degrees) at 21 MPH (18 KT):0
Visibility: greater than 7 mile(s):0
Temperature: 42 F (6 C)
Dew Point: 26 F (-3 C)
Relative Humidity: 52%
Pressure (altimeter): 29.50 in. Hg (0999 hPa)
ob: EPGD 022100Z 23018KT CAVOK 06/M03 Q0999
cycle: 21

Station Type Date Time Source
EPGD TAF 2020/04/02 18:33 UTC NOAA

TAF TAF EPGD 021730Z 0218/0318 23012KT 9999 BKN035
TEMPO 0218/0224 25015G25KT
TEMPO 0300/0306 27018G28KT -RA BKN014 PROB40
TEMPO 0301/0306 3000 RASN BKN006 BKN011
TEMPO 0306/0316 27020G32KT

Example: see airport list